createdAt,value
2019-01-11T00:01:00.911Z,46.20
2019-01-11T00:03:30.393Z,40.57
2019-01-11T00:05:59.921Z,45.73
2019-01-11T00:08:29.373Z,41.47
2019-01-11T00:10:58.793Z,45.27
2019-01-11T00:13:28.277Z,47.77
2019-01-11T00:15:57.767Z,46.00
2019-01-11T00:18:27.163Z,45.23
2019-01-11T00:20:56.601Z,48.03
2019-01-11T00:23:26.154Z,44.50
2019-01-11T00:25:55.625Z,49.90
2019-01-11T00:28:25.123Z,47.13
2019-01-11T00:30:55.924Z,50.00
2019-01-11T00:33:25.424Z,49.70
2019-01-11T00:35:54.871Z,52.20
2019-01-11T00:38:24.472Z,53.93
2019-01-11T00:40:54.333Z,51.70
2019-01-11T00:43:23.881Z,52.93
2019-01-11T00:45:53.410Z,52.67
2019-01-11T00:48:22.945Z,54.13
2019-01-11T00:50:52.397Z,51.10
2019-01-11T00:53:21.873Z,52.23
2019-01-11T00:55:51.339Z,50.00
2019-01-11T00:58:20.853Z,60.67
2019-01-11T01:00:50.243Z,54.40
2019-01-11T01:03:19.709Z,48.80
2019-01-11T01:05:49.133Z,50.20
2019-01-11T01:08:18.695Z,52.17
2019-01-11T01:10:48.319Z,53.03
2019-01-11T01:13:17.873Z,51.17
2019-01-11T01:15:47.447Z,49.67
2019-01-11T01:18:16.880Z,56.67
2019-01-11T01:20:46.433Z,55.67
2019-01-11T01:23:15.900Z,49.80
2019-01-11T01:25:45.347Z,58.67
2019-01-11T01:28:14.756Z,58.30
2019-01-11T01:30:44.297Z,57.60
2019-01-11T01:33:13.956Z,56.63
2019-01-11T01:35:43.402Z,58.57
2019-01-11T01:38:12.919Z,56.93
2019-01-11T01:40:42.495Z,52.43
2019-01-11T01:43:11.947Z,69.20
2019-01-11T01:45:41.498Z,76.13
2019-01-11T01:48:11.026Z,61.50
2019-01-11T01:50:40.500Z,61.63
2019-01-11T01:53:10.228Z,65.67
2019-01-11T01:55:39.789Z,64.07
2019-01-11T01:58:09.314Z,71.73
2019-01-11T02:00:38.954Z,63.10
2019-01-11T02:03:08.341Z,72.03
2019-01-11T02:05:37.888Z,63.17
2019-01-11T02:08:07.265Z,66.70
2019-01-11T02:10:36.634Z,72.87
2019-01-11T02:13:06.148Z,59.63
2019-01-11T02:15:35.833Z,61.60
2019-01-11T02:18:05.575Z,61.50
2019-01-11T02:20:35.083Z,65.47
2019-01-11T02:23:04.640Z,66.53
2019-01-11T02:25:34.108Z,63.83
2019-01-11T02:28:04.590Z,62.30
2019-01-11T02:30:33.992Z,65.50
2019-01-11T02:33:03.443Z,69.93
2019-01-11T02:35:32.952Z,65.40
2019-01-11T02:38:02.337Z,63.83
2019-01-11T02:40:31.708Z,64.50
2019-01-11T02:43:01.240Z,65.33
2019-01-11T02:45:30.759Z,62.77
2019-01-11T02:48:00.146Z,56.50
2019-01-11T02:50:29.553Z,57.33
2019-01-11T02:52:58.942Z,60.17
2019-01-11T02:55:28.537Z,53.00
2019-01-11T02:57:58.022Z,56.07
2019-01-11T03:00:27.433Z,55.33
2019-01-11T03:02:56.955Z,61.13
2019-01-11T03:05:26.359Z,52.23
2019-01-11T03:07:55.858Z,53.33
2019-01-11T03:10:25.652Z,52.00
2019-01-11T03:12:55.134Z,58.20
2019-01-11T03:15:24.535Z,53.83
2019-01-11T03:17:54.118Z,57.37
2019-01-11T03:20:23.519Z,56.27
2019-01-11T03:22:53.486Z,58.33
2019-01-11T03:25:22.968Z,60.20
2019-01-11T03:27:54.100Z,55.87
2019-01-11T03:30:23.482Z,54.23
2019-01-11T03:32:52.947Z,58.47
2019-01-11T03:35:22.508Z,58.60
2019-01-11T03:37:52.244Z,51.77
2019-01-11T03:40:22.531Z,63.40
2019-01-11T03:42:53.672Z,55.30
2019-01-11T03:45:24.583Z,56.07
2019-01-11T03:47:54.268Z,52.77
2019-01-11T03:50:24.108Z,59.07
2019-01-11T03:52:55.250Z,52.97
2019-01-11T03:55:26.571Z,59.87
2019-01-11T03:57:57.705Z,56.17
2019-01-11T04:00:27.108Z,58.57
2019-01-11T04:02:56.546Z,55.40
2019-01-11T04:05:27.689Z,57.13
2019-01-11T04:07:57.155Z,56.10
2019-01-11T04:10:26.720Z,58.33
2019-01-11T04:12:56.113Z,60.33
2019-01-11T04:15:25.690Z,62.40
2019-01-11T04:18:02.810Z,59.63
2019-01-11T04:20:32.354Z,55.00
2019-01-11T04:23:01.908Z,58.13
2019-01-11T04:25:31.769Z,58.37
2019-01-11T04:28:02.234Z,54.47
2019-01-11T04:30:31.802Z,58.70
2019-01-11T04:33:02.946Z,59.33
2019-01-11T04:35:32.476Z,70.13
2019-01-11T04:38:01.958Z,60.67
2019-01-11T04:40:34.269Z,60.07
2019-01-11T04:43:02.435Z,56.57
2019-01-11T04:45:31.995Z,56.93
2019-01-11T04:48:01.447Z,61.00
2019-01-11T04:50:30.944Z,63.50
2019-01-11T04:53:00.553Z,59.80
2019-01-11T04:55:30.142Z,63.10
2019-01-11T04:57:59.601Z,56.93
2019-01-11T05:00:29.194Z,59.77
2019-01-11T05:02:58.744Z,59.70
2019-01-11T05:05:28.211Z,62.90
2019-01-11T05:07:57.749Z,56.93
2019-01-11T05:10:27.238Z,56.13
2019-01-11T05:12:58.301Z,64.33
2019-01-11T05:15:27.760Z,52.77
2019-01-11T05:17:57.135Z,54.20
2019-01-11T05:20:26.601Z,53.33
2019-01-11T05:22:56.130Z,61.93
2019-01-11T05:25:25.603Z,50.60
2019-01-11T05:27:55.090Z,55.67
2019-01-11T05:30:24.590Z,52.77
2019-01-11T05:32:53.981Z,54.13
2019-01-11T05:35:23.374Z,54.53
2019-01-11T05:37:52.798Z,48.83
2019-01-11T05:40:22.201Z,58.23
2019-01-11T05:42:51.590Z,60.53
2019-01-11T05:45:21.136Z,56.67
2019-01-11T05:47:50.673Z,54.20
2019-01-11T05:50:24.226Z,56.27
2019-01-11T05:52:51.641Z,57.30
2019-01-11T05:55:37.746Z,50.77
2019-01-11T05:58:08.970Z,51.00
2019-01-11T06:00:38.532Z,53.40
2019-01-11T06:03:08.025Z,55.67
2019-01-11T06:05:37.512Z,45.37
2019-01-11T06:08:08.671Z,55.50
2019-01-11T06:10:38.164Z,51.77
2019-01-11T06:13:07.551Z,50.63
2019-01-11T06:15:38.170Z,55.63
2019-01-11T06:18:07.622Z,52.07
2019-01-11T06:20:37.081Z,62.90
2019-01-11T06:23:06.485Z,60.83
2019-01-11T06:25:36.122Z,55.80
2019-01-11T06:28:05.619Z,62.57
2019-01-11T06:30:35.137Z,63.77
2019-01-11T06:33:04.626Z,65.77
2019-01-11T06:35:35.387Z,68.00
2019-01-11T06:38:04.893Z,72.10
2019-01-11T06:40:34.423Z,72.47
2019-01-11T06:43:03.935Z,71.50
2019-01-11T06:45:33.391Z,78.87
2019-01-11T06:48:03.034Z,83.97
2019-01-11T06:50:36.613Z,86.97
2019-01-11T06:53:05.225Z,88.97
2019-01-11T06:55:34.628Z,99.33
2019-01-11T06:58:04.156Z,105.33
2019-01-11T07:00:33.558Z,98.10
2019-01-11T07:03:03.094Z,105.30
2019-01-11T07:05:32.609Z,104.23
2019-01-11T07:08:02.020Z,110.33
2019-01-11T07:10:31.665Z,108.23
2019-01-11T07:13:01.197Z,115.97
2019-01-11T07:15:32.047Z,116.00
2019-01-11T07:18:01.495Z,111.20
2019-01-11T07:20:30.945Z,118.20
2019-01-11T07:23:00.341Z,105.20
2019-01-11T07:25:29.737Z,113.00
2019-01-11T07:28:00.943Z,108.30
2019-01-11T07:30:32.102Z,105.77
2019-01-11T07:33:03.575Z,98.23
2019-01-11T07:35:35.442Z,107.77
2019-01-11T07:38:05.013Z,100.33
2019-01-11T07:40:34.585Z,98.90
2019-01-11T07:43:04.131Z,80.93
2019-01-11T07:45:33.677Z,80.53
2019-01-11T07:48:03.051Z,80.77
2019-01-11T07:50:32.567Z,80.33
2019-01-11T07:53:02.097Z,80.67
2019-01-11T07:55:31.547Z,80.63
2019-01-11T07:58:00.997Z,77.47
2019-01-11T08:00:30.402Z,67.67
2019-01-11T08:02:59.791Z,63.83
2019-01-11T08:05:29.213Z,70.33
2019-01-11T08:07:58.702Z,72.73
2019-01-11T08:10:28.155Z,74.13
2019-01-11T08:12:57.687Z,71.17
2019-01-11T08:15:27.276Z,74.67
2019-01-11T08:17:56.765Z,70.30
2019-01-11T08:20:26.224Z,75.20
2019-01-11T08:22:55.638Z,67.77
2019-01-11T08:25:25.161Z,71.87
2019-01-11T08:27:54.639Z,69.87
2019-01-11T08:30:24.118Z,74.17
2019-01-11T08:32:53.625Z,69.90
2019-01-11T08:35:23.205Z,77.20
2019-01-11T08:37:52.763Z,82.63
2019-01-11T08:40:22.159Z,79.13
2019-01-11T08:42:51.633Z,81.23
2019-01-11T08:45:21.337Z,88.87
2019-01-11T08:47:50.863Z,99.20
2019-01-11T08:50:21.516Z,91.47
2019-01-11T08:52:50.919Z,98.00
2019-01-11T08:55:20.502Z,94.50
2019-01-11T08:57:50.005Z,92.67
2019-01-11T09:00:19.563Z,94.60
2019-01-11T09:02:48.940Z,102.80
2019-01-11T09:05:18.445Z,93.87
2019-01-11T09:07:47.926Z,93.53
2019-01-11T09:10:22.614Z,96.23
2019-01-11T09:12:49.245Z,86.60
2019-01-11T09:15:18.741Z,97.17
2019-01-11T09:17:52.313Z,92.13
2019-01-11T09:20:21.792Z,95.83
2019-01-11T09:22:51.327Z,99.33
2019-01-11T09:25:21.001Z,85.07
2019-01-11T09:27:50.647Z,99.90
2019-01-11T09:30:20.085Z,95.20
2019-01-11T09:32:49.703Z,102.17
2019-01-11T09:35:19.189Z,93.43
2019-01-11T09:37:49.215Z,92.73
2019-01-11T09:40:18.824Z,92.17
2019-01-11T09:42:48.298Z,91.23
2019-01-11T09:45:17.835Z,93.90
2019-01-11T09:47:47.305Z,90.10
2019-01-11T09:50:16.927Z,91.40
2019-01-11T09:52:46.291Z,86.20
2019-01-11T09:55:15.929Z,85.77
2019-01-11T09:57:45.576Z,86.93
2019-01-11T10:00:23.779Z,89.70
2019-01-11T10:03:01.037Z,90.10
2019-01-11T10:05:30.547Z,92.43
2019-01-11T10:08:00.119Z,89.30
2019-01-11T10:10:29.647Z,93.00
2019-01-11T10:12:59.139Z,84.63
2019-01-11T10:15:28.645Z,86.50
2019-01-11T10:17:58.295Z,85.57
2019-01-11T10:20:27.743Z,92.47
2019-01-11T10:22:57.299Z,88.07
2019-01-11T10:25:26.766Z,82.63
2019-01-11T10:27:56.275Z,80.00
2019-01-11T10:30:25.827Z,79.20
2019-01-11T10:32:55.295Z,86.23
2019-01-11T10:35:25.121Z,81.60
2019-01-11T10:37:54.557Z,83.40
2019-01-11T10:40:24.162Z,88.10
2019-01-11T10:42:53.556Z,83.77
2019-01-11T10:45:23.284Z,90.77
2019-01-11T10:47:52.983Z,93.57
2019-01-11T10:50:22.817Z,82.17
2019-01-11T10:52:52.277Z,91.37
2019-01-11T10:55:22.118Z,94.97
2019-01-11T10:57:51.591Z,94.63
2019-01-11T11:00:23.098Z,97.17
2019-01-11T11:02:53.062Z,91.77
2019-01-11T11:05:22.635Z,95.00
2019-01-11T11:07:52.173Z,104.60
2019-01-11T11:10:21.657Z,101.67
2019-01-11T11:12:51.308Z,99.90
2019-01-11T11:15:20.901Z,108.03
2019-01-11T11:17:50.459Z,110.13
2019-01-11T11:20:20.110Z,105.20
2019-01-11T11:22:49.940Z,116.90
2019-01-11T11:25:20.246Z,104.43
2019-01-11T11:27:49.942Z,108.23
2019-01-11T11:30:19.706Z,104.27
2019-01-11T11:32:58.820Z,104.93
2019-01-11T11:35:28.517Z,105.73
2019-01-11T11:37:58.251Z,101.70
2019-01-11T11:40:27.707Z,104.20
2019-01-11T11:42:57.290Z,103.40
2019-01-11T11:45:26.749Z,78.03
2019-01-11T11:47:56.227Z,89.83
2019-01-11T11:50:25.698Z,90.10
2019-01-11T11:52:55.286Z,77.93
2019-01-11T11:55:24.850Z,91.27
2019-01-11T11:57:54.246Z,80.40
2019-01-11T12:00:25.427Z,71.80
2019-01-11T12:02:55.046Z,77.67
2019-01-11T12:05:24.515Z,80.30
2019-01-11T12:07:54.090Z,83.97
2019-01-11T12:10:23.708Z,71.50
2019-01-11T12:12:53.264Z,78.83
2019-01-11T12:15:22.728Z,71.37
2019-01-11T12:17:52.201Z,70.77
2019-01-11T12:20:24.746Z,77.43
2019-01-11T12:22:54.313Z,67.83
2019-01-11T12:25:23.846Z,65.73
2019-01-11T12:27:53.517Z,55.80
2019-01-11T12:30:23.034Z,55.13
2019-01-11T12:32:52.609Z,46.27
2019-01-11T12:35:22.250Z,48.70
2019-01-11T12:37:51.646Z,42.80
2019-01-11T12:40:21.106Z,47.73
2019-01-11T12:42:50.596Z,47.37
2019-01-11T12:45:20.148Z,39.97
2019-01-11T12:47:49.600Z,39.23
2019-01-11T12:50:21.243Z,48.23
2019-01-11T12:52:50.746Z,40.10
2019-01-11T12:55:20.210Z,40.80
2019-01-11T12:57:49.823Z,44.67
2019-01-11T13:00:19.624Z,47.27
2019-01-11T13:02:49.310Z,50.93
2019-01-11T13:05:19.910Z,52.53
2019-01-11T13:07:51.052Z,37.80
2019-01-11T13:10:20.921Z,46.03
2019-01-11T13:12:52.109Z,40.97
2019-01-11T13:15:21.660Z,49.43
2019-01-11T13:17:51.116Z,45.57
2019-01-11T13:20:20.984Z,42.30
2019-01-11T13:22:51.476Z,47.50
2019-01-11T13:25:20.958Z,53.00
2019-01-11T13:27:50.762Z,47.57
2019-01-11T13:30:20.422Z,47.83
2019-01-11T13:32:50.072Z,42.13
2019-01-11T13:35:19.738Z,43.30
2019-01-11T13:37:49.198Z,37.10
2019-01-11T13:40:21.160Z,42.40
2019-01-11T13:42:50.734Z,40.27
2019-01-11T13:45:20.284Z,38.47
2019-01-11T13:47:49.848Z,40.80
2019-01-11T13:50:22.400Z,34.97
2019-01-11T13:52:51.883Z,35.47
2019-01-11T13:55:21.446Z,48.30
2019-01-11T13:57:50.940Z,37.23
2019-01-11T14:00:20.429Z,37.67
2019-01-11T14:02:50.357Z,38.57
2019-01-11T14:05:21.494Z,41.20
2019-01-11T14:07:51.182Z,31.13
2019-01-11T14:10:22.382Z,45.33
2019-01-11T14:12:51.924Z,39.13
2019-01-11T14:15:21.586Z,41.43
2019-01-11T14:17:51.138Z,30.27
2019-01-11T14:20:21.115Z,32.37
2019-01-11T14:22:50.564Z,44.47
2019-01-11T14:25:19.987Z,32.17
2019-01-11T14:27:51.118Z,30.37
2019-01-11T14:30:20.949Z,31.90
2019-01-11T14:32:50.468Z,30.47
2019-01-11T14:35:20.858Z,21.07
2019-01-11T14:37:50.294Z,23.47
2019-01-11T14:40:20.544Z,22.20
2019-01-11T14:42:49.922Z,24.47
2019-01-11T14:45:19.512Z,17.07
2019-01-11T14:47:48.963Z,20.70
2019-01-11T14:50:20.385Z,20.83
2019-01-11T14:52:49.902Z,18.07
2019-01-11T14:55:19.496Z,21.20
2019-01-11T14:57:49.031Z,40.00
2019-01-11T15:00:20.692Z,27.23
2019-01-11T15:02:50.679Z,31.07
2019-01-11T15:05:20.629Z,31.93
2019-01-11T15:07:50.122Z,28.90
2019-01-11T15:10:20.359Z,23.67
2019-01-11T15:12:51.569Z,30.27
2019-01-11T15:15:21.168Z,22.80
2019-01-11T15:17:50.726Z,23.53
2019-01-11T15:20:20.188Z,22.23
2019-01-11T15:22:50.548Z,26.10
2019-01-11T15:25:19.920Z,23.00
2019-01-11T15:27:51.140Z,28.57
2019-01-11T15:30:20.510Z,28.50
2019-01-11T15:32:50.076Z,31.83
2019-01-11T15:35:19.634Z,36.33
2019-01-11T15:37:49.129Z,28.70
2019-01-11T15:40:21.343Z,26.60
2019-01-11T15:42:50.893Z,19.97
2019-01-11T15:45:20.366Z,29.00
2019-01-11T15:47:49.837Z,27.90
2019-01-11T15:50:41.698Z,25.47
2019-01-11T15:53:11.254Z,18.03
2019-01-11T15:55:40.738Z,27.27
2019-01-11T15:58:10.601Z,21.97
2019-01-11T16:00:45.014Z,21.63
2019-01-11T16:03:14.952Z,26.40
2019-01-11T16:05:44.378Z,28.93
2019-01-11T16:08:13.856Z,28.33
2019-01-11T16:10:55.090Z,15.30
2019-01-11T16:13:26.506Z,24.33
2019-01-11T16:15:59.403Z,19.60
2019-01-11T16:18:29.000Z,26.20
2019-01-11T16:20:58.468Z,25.63
2019-01-11T16:23:27.978Z,24.40
2019-01-11T16:25:59.178Z,22.50
2019-01-11T16:28:28.646Z,21.60
2019-01-11T16:30:58.426Z,20.10
2019-01-11T16:33:27.931Z,19.37
2019-01-11T16:35:57.420Z,22.40
2019-01-11T16:38:26.904Z,24.53
2019-01-11T16:40:56.428Z,28.10
2019-01-11T16:43:26.283Z,23.87
2019-01-11T16:45:57.412Z,23.30
2019-01-11T16:48:26.851Z,21.53
2019-01-11T16:50:56.376Z,23.63
2019-01-11T16:53:25.848Z,29.13
2019-01-11T16:55:55.330Z,24.67
2019-01-11T16:58:24.894Z,20.10
2019-01-11T17:00:54.396Z,30.30
2019-01-11T17:03:23.888Z,16.70
2019-01-11T17:05:53.314Z,16.90
2019-01-11T17:08:22.772Z,15.63
2019-01-11T17:10:52.230Z,16.93
2019-01-11T17:13:21.730Z,21.23
2019-01-11T17:15:51.234Z,15.13
2019-01-11T17:18:20.616Z,19.00
2019-01-11T17:20:50.091Z,19.47
2019-01-11T17:23:19.605Z,13.10
2019-01-11T17:25:50.092Z,17.53
2019-01-11T17:28:19.602Z,20.10
2019-01-11T17:30:49.031Z,17.47
2019-01-11T17:33:18.430Z,17.63
2019-01-11T17:35:48.117Z,18.73
2019-01-11T17:38:18.002Z,25.37
2019-01-11T17:40:47.520Z,21.33
2019-01-11T17:43:17.121Z,18.90
2019-01-11T17:45:48.270Z,18.33
2019-01-11T17:48:17.840Z,19.47
2019-01-11T17:50:47.316Z,22.57
2019-01-11T17:53:16.763Z,21.77
2019-01-11T17:55:46.462Z,20.87
2019-01-11T17:58:16.128Z,18.90
2019-01-11T18:00:45.656Z,21.37
2019-01-11T18:03:15.186Z,17.00
2019-01-11T18:05:44.563Z,24.60
2019-01-11T18:08:13.974Z,20.70
2019-01-11T18:10:43.369Z,23.10
2019-01-11T18:13:12.908Z,19.23
2019-01-11T18:15:42.291Z,19.07
2019-01-11T18:18:11.842Z,21.73
2019-01-11T18:20:41.390Z,18.47
2019-01-11T18:23:10.989Z,17.50
2019-01-11T18:25:40.481Z,16.77
2019-01-11T18:28:11.662Z,18.30
2019-01-11T18:30:42.290Z,25.50
2019-01-11T18:33:11.739Z,24.00
2019-01-11T18:35:41.269Z,27.13
2019-01-11T18:38:10.885Z,23.37
2019-01-11T18:40:40.891Z,23.43
2019-01-11T18:43:10.342Z,25.73
2019-01-11T18:45:39.856Z,31.20
2019-01-11T18:48:09.461Z,30.23
2019-01-11T18:50:38.945Z,29.87
2019-01-11T18:53:13.656Z,37.80
2019-01-11T18:55:39.565Z,27.60
2019-01-11T18:58:09.022Z,30.33
2019-01-11T19:00:38.526Z,36.20
2019-01-11T19:03:07.916Z,37.47
2019-01-11T19:05:37.423Z,31.17
2019-01-11T19:08:07.007Z,39.37
2019-01-11T19:10:36.567Z,38.67
2019-01-11T19:13:05.995Z,32.93
2019-01-11T19:15:35.467Z,33.23
2019-01-11T19:18:04.934Z,39.37
2019-01-11T19:20:34.489Z,31.53
2019-01-11T19:23:04.035Z,39.83
2019-01-11T19:25:33.510Z,29.23
2019-01-11T19:28:03.121Z,37.97
2019-01-11T19:30:32.529Z,36.30
2019-01-11T19:33:02.011Z,30.30
2019-01-11T19:35:31.595Z,28.20
2019-01-11T19:38:01.065Z,29.67
2019-01-11T19:40:30.622Z,32.47
2019-01-11T19:43:00.117Z,29.20
2019-01-11T19:45:29.598Z,30.30
2019-01-11T19:47:59.197Z,29.40
2019-01-11T19:50:28.856Z,28.17
2019-01-11T19:52:58.385Z,27.87
2019-01-11T19:55:27.711Z,29.53
2019-01-11T19:57:57.294Z,31.10
2019-01-11T20:00:27.517Z,27.00
2019-01-11T20:02:57.007Z,31.43
2019-01-11T20:05:26.490Z,28.07
2019-01-11T20:07:56.231Z,31.13
2019-01-11T20:10:28.348Z,32.27
2019-01-11T20:12:57.853Z,28.90
2019-01-11T20:15:27.366Z,30.30
2019-01-11T20:17:56.702Z,33.43
2019-01-11T20:20:26.621Z,25.07
2019-01-11T20:23:02.253Z,30.33
2019-01-11T20:25:27.360Z,31.10
2019-01-11T20:27:56.896Z,25.80
2019-01-11T20:30:26.751Z,31.67
2019-01-11T20:32:56.293Z,26.70
2019-01-11T20:35:26.063Z,31.37
2019-01-11T20:37:55.590Z,34.73
2019-01-11T20:40:25.269Z,29.50
2019-01-11T20:42:54.801Z,24.90
2019-01-11T20:45:24.463Z,22.67
2019-01-11T20:47:54.001Z,20.33
2019-01-11T20:50:23.698Z,25.43
2019-01-11T20:52:53.357Z,27.73
2019-01-11T20:55:22.989Z,25.73
2019-01-11T20:57:52.520Z,31.20
2019-01-11T21:00:27.834Z,24.03
2019-01-11T21:02:57.345Z,20.20
2019-01-11T21:05:27.389Z,22.23
2019-01-11T21:07:56.890Z,18.27
2019-01-11T21:10:27.143Z,23.90
2019-01-11T21:12:57.098Z,17.10
2019-01-11T21:15:26.604Z,13.63
2019-01-11T21:17:56.257Z,13.23
2019-01-11T21:20:26.318Z,12.17
2019-01-11T21:22:55.867Z,16.83
2019-01-11T21:25:25.684Z,14.77
2019-01-11T21:27:55.185Z,11.73
2019-01-11T21:30:26.785Z,13.17
2019-01-11T21:32:56.259Z,10.63
2019-01-11T21:35:25.855Z,13.03
2019-01-11T21:37:55.497Z,11.23
2019-01-11T21:40:25.265Z,11.07
2019-01-11T21:42:54.729Z,14.10
2019-01-11T21:45:25.862Z,12.57
2019-01-11T21:47:55.341Z,10.57
2019-01-11T21:50:25.073Z,16.47
2019-01-11T21:52:54.847Z,9.67
2019-01-11T21:55:24.377Z,20.43
2019-01-11T21:57:53.913Z,12.47
2019-01-11T22:00:26.155Z,20.97
2019-01-11T22:02:55.641Z,12.00
2019-01-11T22:05:25.481Z,19.33
2019-01-11T22:07:54.869Z,18.20
2019-01-11T22:10:24.336Z,21.00
2019-01-11T22:12:53.875Z,23.43
2019-01-11T22:15:23.381Z,18.30
2019-01-11T22:17:52.855Z,22.10
2019-01-11T22:20:22.443Z,19.60
2019-01-11T22:22:51.835Z,19.90
2019-01-11T22:25:21.298Z,21.30
2019-01-11T22:27:50.713Z,19.03
2019-01-11T22:30:29.895Z,19.23
2019-01-11T22:32:53.774Z,23.20
2019-01-11T22:35:23.227Z,23.03
2019-01-11T22:37:52.771Z,27.73
2019-01-11T22:40:23.796Z,28.57
2019-01-11T22:42:55.387Z,20.67
2019-01-11T22:45:26.005Z,24.87
2019-01-11T22:47:55.467Z,28.30
2019-01-11T22:50:24.929Z,23.20
2019-01-11T22:52:54.481Z,24.43
2019-01-11T22:55:23.866Z,25.00
2019-01-11T22:57:53.332Z,20.33
2019-01-11T23:00:36.389Z,20.33
2019-01-11T23:03:09.271Z,23.87
2019-01-11T23:05:39.963Z,22.27
2019-01-11T23:08:11.670Z,22.20
2019-01-11T23:10:53.105Z,22.47
2019-01-11T23:13:22.652Z,25.13
2019-01-11T23:15:52.206Z,29.13
2019-01-11T23:18:21.700Z,25.80
2019-01-11T23:20:51.357Z,25.07
2019-01-11T23:23:20.836Z,22.17
2019-01-11T23:25:50.299Z,23.13
2019-01-11T23:28:19.726Z,21.47
2019-01-11T23:30:49.211Z,25.57
2019-01-11T23:33:18.594Z,24.07
2019-01-11T23:35:48.146Z,23.73
2019-01-11T23:38:18.377Z,16.87
2019-01-11T23:40:47.829Z,20.50
2019-01-11T23:43:17.311Z,20.17
2019-01-11T23:45:46.701Z,24.73
2019-01-11T23:48:16.159Z,19.37
2019-01-11T23:50:45.653Z,23.03
2019-01-11T23:53:15.105Z,21.93
2019-01-11T23:55:44.535Z,17.30
2019-01-11T23:58:14.240Z,21.63
